Flight Track Log - Related Links

Times and Time Zones

All times are in EDT time to prevent confusion due to time zone crossing. See the SWA267 flight status page for this flight to view local times or setup timezone preferences in your user account.

Time Position Orientation Groundspeed Altitude Reporting Facility
EDT Latitude Longitude Course Direction KTS MPH feet Rate Location/Type
Tue 12:19:13 PM 36.8589 -76.3239 257° West 267 307 5,300  Level Washington Center
Tue 12:20:14 PM 36.8833 -76.4125 289° West 287 330 9,500 5,016 Climbing Washington Center
Tue 12:21:21 PM 36.9286 -76.4961 304° West 289 333 16,000 2,598 Climbing Washington Center
Tue 12:22:21 PM 37.0011 -76.5672 322° Northwest 307 353 15,000  Descending Washington Center
Tue 12:23:21 PM 37.0650 -76.6642 310° West 336 387 16,000 500 Climbing Washington Center
Tue 12:24:21 PM 37.1267 -76.7694 306° West 357 411 16,000  Level Washington Center
Tue 12:25:21 PM 37.2156 -76.8567 322° Northwest 368 423 16,000  Level Washington Center
Tue 12:26:21 PM 37.3069 -76.8817 348° North 361 415 16,000  Level Washington Center
Tue 12:27:21 PM 37.4214 -76.9097 349° North 377 434 16,000  Level Washington Center
Tue 12:28:21 PM 37.5275 -76.9300 351° North 377 434 16,000  Level Washington Center
Tue 12:29:21 PM 37.6150 -76.9550 347° North 377 434 16,000  Level Washington Center
Tue 12:30:21 PM 37.7169 -76.9781 350° North 371 427 16,000  Level Washington Center
Tue 12:31:21 PM 37.8167 -77.0008 350° North 371 427 16,000  Level Washington Center
Tue 12:32:21 PM 37.9164 -77.0236 350° North 371 427 16,000  Level Washington Center
Tue 12:33:21 PM 38.0142 -77.0492 348° North 371 427 16,000  Level Washington Center
Tue 12:34:21 PM 38.1142 -77.0722 350° North 366 421 16,000  Level Washington Center
Tue 12:35:21 PM 38.2117 -77.0953 349° North 361 415 16,000 -250 Level Washington Center
Tue 12:36:21 PM 38.3075 -77.1158 350° North 361 415 15,500 -500 Descending Washington Center
Tue 12:37:21 PM 38.4033 -77.1097 North 350 403 15,000 -1,200 Descending Washington Center
Tue 12:38:21 PM 38.4775 -77.0211 43° Northeast 327 376 13,100 -1,500 Descending Washington Center
Tue 12:39:21 PM 38.5472 -76.9350 44° Northeast 339 390 12,000 -1,300 Descending Washington Center
Tue 12:40:21 PM 38.6147 -76.8564 42° Northeast 334 384 10,500 -1,150 Descending Washington Center
Tue 12:41:21 PM 38.6761 -76.7803 44° Northeast 319 367 9,700 -800 Descending Washington Center
Tue 12:42:21 PM 38.7250 -76.6933 54° Northeast 303 349 8,900 -1,339 Descending Washington Center
Tue 12:43:22 PM 38.7667 -76.6000 60° Northeast 296 341 7,000 -1,587 Descending Potomac TRACON
Tue 12:44:22 PM 38.8333 -76.5333 38° Northeast 298 343 5,700 -1,150 Descending Potomac TRACON
Tue 12:45:22 PM 38.9000 -76.5667 339° North 290 334 4,700 -947 Descending Potomac TRACON
Tue 12:46:16 PM 38.9667 -76.6000 339° North 280 322 3,900 -421 Descending Potomac TRACON
Tue 12:47:16 PM 39.0167 -76.6833 308° West 264 304 3,900  Level Potomac TRACON
Tue 12:48:11 PM 39.0333 -76.7500 288° West 265 305 3,900  Level Potomac TRACON
Tue 12:49:11 PM 39.0833 -76.8333 308° West 268 308 3,900  Level Potomac TRACON
Tue 12:50:11 PM 39.1000 -76.9167 284° West 225 259 3,900 -500 Level Potomac TRACON
Tue 12:51:11 PM 39.1500 -76.9500 333° Northwest 242 278 2,900 -1,000 Descending Potomac TRACON
Tue 12:52:11 PM 39.2000 -76.9167 27° Northeast 237 273 1,900 -526 Descending Potomac TRACON
Tue 12:53:05 PM 39.1833 -76.8500 108° East 204 235 1,900 -105 Level Potomac TRACON
Tue 12:54:05 PM 39.1833 -76.7833 90° East 178 205 1,700 -500 Descending Potomac TRACON
Tue 12:55:05 PM 39.1833 -76.7333 90° East 139 160 900 -800 Descending Potomac TRACON
Tue 12:57:00 PM 39.1667 -76.6667 84° East  Level FlightAware Approximate

Login

Don't have an account? Register now (free) for customized features, flight alerts, and more!